Chicago, Illinois
Current Conditions -  °F | °C
As of 11:53 AM on Saturday 25 Oct 2014 (Local Time) from KMDW Reporting Station
Few Clouds Few Clouds  
Wind Chill: 71°   Ceiling: Unl
Heat Index: 71°   Visibility: 10mi
Dew Point: 44°   Wind: 15mph
Humidity: 38%   Direction: 300°WNW
Pressure: 29.95"   Gusts: NA
Location:  41.88°N, 87.63°W
Report Text: KMDW 251653Z 30013KT 10SM FEW100 FEW250 22/07 A2995 RMK AO2 SLP137 T02170067
Loading
Personal Weather Stations






























Interactive Weather Map
Tropical Storm Tracking
New forecast layout! Learn more

10-Day Weather Forecast

Advertisements
Track Severe Weather on mobile